KNKX

Miramar MCAS Airport

San Diego, California, USA
METAR KNKX 190255Z 28006KT 10SM CLR 21/16 A2982 RMK AO2 SLP092 T02060161 53004
Observed Flight Rules
Sep-19 @ 02:55 UTC (57 minutes ago) Visual Flight Rules
Wind Visibility Clouds
280° at 6 knots 10 miles
  • Clear skies
Temperatures Readings
Current 21°C / 70°F
Dewpoint 16°C / 61°F
Humidity 73%
Altimeter 29.82" Hg
Pressure 1009.2 hPa
Elevation 146
METAR KNKX 190255Z 28006KT 10SM CLR 21/16 A2982 RMK AO2 SLP092 T02060161 53004
Observed Flight Rules
Sep-19 @ 02:55 UTC
(57 minutes ago)
VFR
Wind Visibility
280° at 6 knots 10 miles
Clouds
  • Clear skies
Temperature Dewpoint
21°C / 70°F 16°C / 61°F
Humidity Altimeter Pressure
73% 29.82" Hg 1009.2 hPa